(BATL)


Exchange


Currency in (Disclaimer)
Volume:
Day's Range:

BATL Insider Transactions

Transaction Date
(SEC Report )
Reporting Name Relationship Shrs. Owned Type Acq./Disp. Shrs. Transacted Price() Amount()
2023-02-20 Mayer Walter R officer: SVP, General Counsel 2,214 M-Exempt D 2,214 0.00 0.00
2023-02-20 Mayer Walter R officer: SVP, General Counsel 4,951 F-InKind D 656 9.77 6,409.12
2023-02-20 Mayer Walter R officer: SVP, General Counsel 5,607 M-Exempt A 2,214 0.00 0.00
2023-02-20 Rohling Daniel P officer: Chief Operating Officer 6,641 M-Exempt D 6,641 0.00 0.00
2023-02-20 Rohling Daniel P officer: Chief Operating Officer 22,258 F-InKind D 1,969 9.77 19,237.13
2023-02-20 Rohling Daniel P officer: Chief Operating Officer 24,227 M-Exempt A 6,641 0.00 0.00
2023-02-20 Kasparek Leah R. officer: SVP, HR & Corporate Secretary 2,214 M-Exempt D 2,214 0.00 0.00
2023-02-20 Kasparek Leah R. officer: SVP, HR & Corporate Secretary 5,267 F-InKind D 656 9.77 6,409.12
2023-02-20 Kasparek Leah R. officer: SVP, HR & Corporate Secretary 5,923 M-Exempt A 2,214 0.00 0.00
2023-02-20 Evans Grant R officer: VP, Exploration & Geosciences 9,580 F-InKind D 1,312 9.77 12,818.24
2023-02-20 Evans Grant R officer: VP, Exploration & Geosciences 10,892 M-Exempt A 4,427 0.00 0.00
2023-02-20 Little Richard H officer: Chief Executive Officer 17,710 M-Exempt D 17,709 0.00 0.00
2023-02-20 Little Richard H officer: Chief Executive Officer 47,471 F-InKind D 4,408 9.77 43,066.16
2023-02-20 Little Richard H officer: Chief Executive Officer 52,279 M-Exempt A 17,709 0.00 0.00
2023-02-01 McWatters Kristen officer: EVP, CFO & Treasurer 20,000 A-Award A 20,000 0.00 0.00
2023-02-01 McWatters Kristen officer: EVP, CFO & Treasurer 10,000 A-Award A 10,000 0.00 0.00
2022-08-21 Andrews Richard Kevin officer: EVP, CFO and Treasurer 13,282 M-Exempt D 6,641 0.00 0.00
2022-08-21 Andrews Richard Kevin officer: EVP, CFO and Treasurer 12,548 F-InKind D 1,617 12.04 19,468.68
2022-08-21 Andrews Richard Kevin officer: EVP, CFO and Treasurer 14,165 M-Exempt A 6,641 0.00 0.00
2022-06-10 Andrews Richard Kevin officer: EVP, CFO and Treasurer 7,524 P-Purchase A 300 14.08 4,224.18
2022-06-09 Little Richard H officer: Chief Executive Officer 34,570 P-Purchase A 1,000 14.58 14,579.00
2022-06-08 Rohling Daniel P officer: Chief Operating Officer 17,586 P-Purchase A 1,500 15.10 22,650.00
2022-06-02 Rohling Daniel P officer: Chief Operating Officer 16,086 P-Purchase A 2,337 15.23 35,583.86
2022-06-01 Little Richard H officer: Chief Executive Officer 33,570 P-Purchase A 1,000 15.17 15,171.00
2022-06-01 Andrews Richard Kevin officer: EVP, CFO and Treasurer 7,224 P-Purchase A 300 15.04 4,512.99
2022-02-20 Evans Grant R officer: VP, Exploration & Geosciences 4,428 M-Exempt D 4,427 0.00 0.00
2022-02-20 Evans Grant R officer: VP, Exploration & Geosciences 8,855 M-Exempt D 4,427 0.00 0.00
2022-02-20 Evans Grant R officer: VP, Exploration & Geosciences 6,465 F-InKind D 1,312 17.98 23,589.76
2022-02-20 Evans Grant R officer: VP, Exploration & Geosciences 7,777 M-Exempt A 4,427 0.00 0.00
2022-02-20 Kasparek Leah R. officer: SVP, HR & Corporate Secretary 4,428 M-Exempt D 2,214 0.00 0.00
2022-02-20 Kasparek Leah R. officer: SVP, HR & Corporate Secretary 3,709 F-InKind D 656 17.98 11,794.88
2022-02-20 Kasparek Leah R. officer: SVP, HR & Corporate Secretary 4,365 M-Exempt A 2,214 0.00 0.00
2022-02-20 Mayer Walter R officer: VP, Legal 4,428 M-Exempt D 2,214 0.00 0.00
2022-02-20 Mayer Walter R officer: VP, Legal 3,393 F-InKind D 656 17.98 11,794.88
2022-02-20 Mayer Walter R officer: VP, Legal 4,049 M-Exempt A 2,214 0.00 0.00
2022-02-20 Little Richard H officer: Chief Executive Officer 35,419 M-Exempt D 17,709 0.00 0.00
2022-02-20 Little Richard H officer: Chief Executive Officer 32,570 F-InKind D 4,536 17.98 81,557.28
2022-02-20 Little Richard H officer: Chief Executive Officer 37,106 M-Exempt A 17,709 0.00 0.00
2022-02-20 Rohling Daniel P officer: Chief Operating Officer 13,282 M-Exempt D 6,641 0.00 0.00
2022-02-20 Rohling Daniel P officer: Chief Operating Officer 13,749 F-InKind D 1,916 17.98 34,449.68
2022-02-20 Rohling Daniel P officer: Chief Operating Officer 15,665 M-Exempt A 6,641 0.00 0.00
2021-12-08 ROGERS WILLIAM D director 2,000 P-Purchase A 2,000 10.59 21,180.00
2021-12-08 Andrews Richard Kevin officer: EVP, CFO and Treasurer 6,924 P-Purchase A 200 10.43 2,086.00
2021-12-07 Kasparek Leah R. officer: SVP, HR & Corporate Secretary 2,151 S-Sale D 2 10.02 20.04
2021-12-07 Andrews Richard Kevin officer: EVP, CFO and Treasurer 6,724 P-Purchase A 150 10.69 1,603.50
2021-09-14 Little Richard H officer: Chief Executive Officer 19,397 P-Purchase A 3,000 7.90 23,706.00
2021-09-14 Rohling Daniel P officer: Chief Operating Officer 9,024 P-Purchase A 4,000 8.50 34,000.00
2021-09-10 Hinds Gregory S. director 11,601 P-Purchase A 6,201 7.99 49,518.71
2021-09-10 Evans Grant R officer: VP, Exploration & Geosciences 9,551 P-Purchase A 6,201 7.99 49,518.71
2021-09-10 Little Richard H officer: Chief Executive Officer 16,397 P-Purchase A 3,000 7.85 23,538.00
2021-09-10 Andrews Richard Kevin officer: EVP, CFO and Treasurer 6,574 P-Purchase A 1,550 7.92 12,279.57
2021-08-21 Andrews Richard Kevin officer: EVP, CFO and Treasurer 6,641 M-Exempt A 6,641 0.00 0.00
2021-08-21 Andrews Richard Kevin officer: EVP, CFO and Treasurer 5,024 F-InKind D 1,617 11.75 18,999.75
2021-08-21 Andrews Richard Kevin officer: EVP, CFO and Treasurer 19,923 M-Exempt D 6,641 0.00 0.00
2021-06-15 ROGERS WILLIAM D director 2,000 P-Purchase A 2,000 13.44 26,880.00
2021-06-03 Germann Scott director 2,438 S-Sale D 1,801 12.54 22,584.54
2021-06-03 Germann Scott director 0 S-Sale D 2,438 12.50 30,475.00
2021-06-01 Germann Scott director 4,239 S-Sale D 553 13.11 7,249.83
2021-02-20 Evans Grant R officer: VP, Exploration & Geosciences 4,427 M-Exempt A 4,427 0.00 0.00
2021-02-20 Evans Grant R officer: VP, Exploration & Geosciences 3,350 F-InKind D 1,077 11.16 12,019.32
2021-02-20 Evans Grant R officer: VP, Exploration & Geosciences 13,282 M-Exempt D 4,427 0.00 0.00
2021-02-20 Rohling Daniel P officer: Chief Operating Officer 5,024 F-InKind D 1,617 11.16 18,045.72
2021-02-20 Rohling Daniel P officer: Chief Operating Officer 6,641 M-Exempt A 6,641 0.00 0.00
2021-02-20 Rohling Daniel P officer: Chief Operating Officer 19,923 M-Exempt D 6,641 0.00 0.00
2021-02-20 Mayer Walter R officer: VP, Legal 2,420 M-Exempt A 2,213 0.00 0.00
2021-02-20 Mayer Walter R officer: VP, Legal 1,835 F-InKind D 585 11.16 6,528.60
2021-02-20 Mayer Walter R officer: VP, Legal 6,642 M-Exempt D 2,213 0.00 0.00
2021-02-20 Kasparek Leah R. officer: SVP, HR & Administration 2,690 M-Exempt A 2,213 0.00 0.00
2021-02-20 Kasparek Leah R. officer: SVP, HR & Administration 2,153 F-InKind D 537 11.16 5,992.92
2021-02-20 Kasparek Leah R. officer: SVP, HR & Administration 6,642 M-Exempt D 2,213 0.00 0.00
2021-02-20 Little Richard H officer: Chief Executive Officer 17,709 M-Exempt A 17,709 0.00 0.00
2021-02-20 Little Richard H officer: Chief Executive Officer 13,397 F-InKind D 4,312 11.16 48,121.92
2021-02-20 Little Richard H officer: Chief Executive Officer 53,128 M-Exempt D 17,709 0.00 0.00
2020-12-30 Kasparek Leah R. officer: SVP, HR & Administration 477 S-Sale D 43 7.93 340.99
2020-08-21 Andrews Richard Kevin officer: EVP, CFO and Treasurer 53,128 A-Award A 53,128 0.00 0.00
2020-08-21 Andrews Richard Kevin officer: EVP, CFO and Treasurer 26,564 A-Award A 26,564 18.91 502,325.24
2020-06-12 Hinds Gregory S. director 5,400 P-Purchase A 5,400 9.27 50,058.00
2020-06-05 Germann Scott director 1,600 P-Purchase A 1,600 6.60 10,560.00
2020-06-05 Germann Scott director 3,000 P-Purchase A 1,400 6.75 9,450.00
2020-02-20 Evans Grant R officer: VP, Exploration & Geosciences 17,709 A-Award A 17,709 18.91 334,877.19
2020-02-20 Evans Grant R officer: VP, Exploration & Geosciences 35,418 A-Award A 35,418 0.00 0.00
2020-02-20 Mayer Walter R officer: VP, Legal 17,709 A-Award A 17,709 0.00 0.00
2020-02-20 Mayer Walter R officer: VP, Legal 8,855 A-Award A 8,855 18.91 167,448.05
2020-02-20 Kasparek Leah R. officer: SVP, HR & Administration 17,709 A-Award A 17,709 0.00 0.00
2020-02-20 Kasparek Leah R. officer: SVP, HR & Administration 8,855 A-Award A 8,855 18.91 167,448.05
2020-02-20 Altizer Ragan T officer: Chief Financial Officer 53,128 A-Award A 53,128 0.00 0.00
2020-02-20 Altizer Ragan T officer: Chief Financial Officer 26,564 A-Award A 26,564 18.91 502,325.24
2020-02-20 Little Richard H officer: Chief Executive Officer 141,674 A-Award A 141,674 0.00 0.00
2020-02-20 Little Richard H officer: Chief Executive Officer 70,837 A-Award A 70,837 18.91 1,339,527.67
2020-02-20 Rohling Daniel P officer: Chief Operating Officer 26,564 A-Award A 26,564 18.91 502,325.24
2020-02-20 Rohling Daniel P officer: Chief Operating Officer 53,128 A-Award A 53,128 0.00 0.00
2019-12-13 Elkouri David S officer: EVP, General Counsel 869 S-Sale D 250 13.00 3,250.00
2019-10-08 Kasparek Leah R. officer: SVP, HR & Administration 0 J-Other D 224,558 0.00 0.00
2019-10-08 Kasparek Leah R. officer: SVP, HR & Administration 520 J-Other A 520 0.00 0.00
2019-10-08 Kasparek Leah R. officer: SVP, HR & Administration 2,500 J-Other A 2,500 40.17 100,425.00
2019-10-08 Kasparek Leah R. officer: SVP, HR & Administration 3,126 J-Other A 3,126 0.00 0.00
2019-10-08 Kasparek Leah R. officer: SVP, HR & Administration 4,020 J-Other A 4,020 0.00 0.00
2019-10-08 Elkouri David S officer: EVP, General Counsel 0 J-Other D 561,898 0.00 0.00
2019-10-08 Elkouri David S officer: EVP, General Counsel 6,258 J-Other A 6,258 40.17 251,383.86
2019-10-08 Elkouri David S officer: EVP, General Counsel 2 J-Other A 2 0.00 0.00

Disclaimer: The data contained in this website is not necessarily real-time nor accurate. All derived (stocks, indexes, futures), cryptocurrencies, and Forex prices are not provided by exchanges but rather by our third party API www.financialmodellingprep.com, and so prices may not be accurate and may differ from the actual market price, meaning prices are indicative and not appropriate for trading purposes. Therefore, Discounting Cash Flows Group doesn't bear any responsibility for any trading losses you might incur as a result of using this data. Discounting Cash Flows Group or anyone involved with Discounting Cash Flows Group will not accept any liability for loss or damage as a result of reliance on the information including data, quotes, charts and buy/sell signals contained within this website. Please be fully informed regarding the risks and costs associated with trading the financial markets, it is one of the riskiest investment forms possible.